createdAt,value
2022-10-18T00:00:18.652Z,7.88
2022-10-18T00:02:45.447Z,8.43
2022-10-18T00:05:12.208Z,9.95
2022-10-18T00:07:38.932Z,8.90
2022-10-18T00:10:06.269Z,9.68
2022-10-18T00:12:35.383Z,7.72
2022-10-18T00:15:03.283Z,8.77
2022-10-18T00:17:30.426Z,7.35
2022-10-18T00:19:57.361Z,10.48
2022-10-18T00:22:25.339Z,9.73
2022-10-18T00:24:52.194Z,9.10
2022-10-18T00:27:19.289Z,7.30
2022-10-18T00:29:46.103Z,12.55
2022-10-18T00:32:12.907Z,8.68
2022-10-18T00:34:40.327Z,5.95
2022-10-18T00:37:07.403Z,6.35
2022-10-18T00:39:34.270Z,9.05
2022-10-18T00:42:01.135Z,7.82
2022-10-18T00:44:27.816Z,6.30
2022-10-18T00:46:59.706Z,8.38
2022-10-18T00:49:56.874Z,7.57
2022-10-18T00:52:29.211Z,9.40
2022-10-18T00:54:57.360Z,15.73
2022-10-18T00:57:25.250Z,8.27
2022-10-18T00:59:52.881Z,6.47
2022-10-18T01:02:20.457Z,6.60
2022-10-18T01:04:48.001Z,7.72
2022-10-18T01:07:57.831Z,10.20
2022-10-18T01:10:34.774Z,7.65
2022-10-18T01:13:32.652Z,12.73
2022-10-18T01:16:30.933Z,9.77
2022-10-18T01:19:22.064Z,9.38
2022-10-18T01:22:02.001Z,7.90
2022-10-18T01:28:01.378Z,7.35
2022-10-18T01:30:46.256Z,7.70
2022-10-18T01:33:46.659Z,8.60
2022-10-18T01:36:21.216Z,10.07
2022-10-18T01:38:51.095Z,7.85
2022-10-18T01:41:20.373Z,10.45
2022-10-18T01:43:50.291Z,15.80
2022-10-18T01:46:21.247Z,12.10
2022-10-18T01:48:49.132Z,7.13
2022-10-18T01:51:20.044Z,8.35
2022-10-18T01:53:46.909Z,10.65
2022-10-18T01:56:25.628Z,10.98
2022-10-18T01:58:55.202Z,8.05
2022-10-18T02:02:02.450Z,6.65
2022-10-18T02:04:44.320Z,6.30
2022-10-18T02:07:55.440Z,10.75
2022-10-18T02:10:48.680Z,8.02
2022-10-18T02:13:18.794Z,8.05
2022-10-18T02:15:49.780Z,8.05
2022-10-18T02:18:24.476Z,8.52
2022-10-18T02:20:52.910Z,9.00
2022-10-18T02:23:23.588Z,10.45
2022-10-18T02:25:50.895Z,9.85
2022-10-18T02:28:17.923Z,7.50
2022-10-18T02:31:27.215Z,7.80
2022-10-18T02:33:56.976Z,11.07
2022-10-18T02:36:33.389Z,9.20
2022-10-18T02:39:07.624Z,11.35
2022-10-18T02:41:34.577Z,10.00
2022-10-18T02:44:01.342Z,10.23
2022-10-18T02:46:28.212Z,10.75
2022-10-18T02:48:54.938Z,8.18
2022-10-18T02:51:21.867Z,6.93
2022-10-18T02:53:48.667Z,12.88
2022-10-18T02:56:15.408Z,7.38
2022-10-18T02:58:42.166Z,7.18
2022-10-18T03:01:08.989Z,9.93
2022-10-18T03:03:35.817Z,12.73
2022-10-18T03:06:02.700Z,8.82
2022-10-18T03:08:29.502Z,9.13
2022-10-18T03:10:56.222Z,10.18
2022-10-18T03:13:22.979Z,10.02
2022-10-18T03:15:49.772Z,9.73
2022-10-18T03:18:16.582Z,9.70
2022-10-18T03:20:43.359Z,9.43
2022-10-18T03:23:10.184Z,8.32
2022-10-18T03:25:36.932Z,11.98
2022-10-18T03:28:03.860Z,11.48
2022-10-18T03:30:30.574Z,9.73
2022-10-18T03:32:57.297Z,6.40
2022-10-18T03:35:24.064Z,11.25
2022-10-18T03:37:50.915Z,7.63
2022-10-18T03:40:17.797Z,8.70
2022-10-18T03:42:44.551Z,6.90
2022-10-18T03:45:11.412Z,9.48
2022-10-18T03:47:38.152Z,10.15
2022-10-18T03:50:05.359Z,8.18
2022-10-18T03:52:32.455Z,7.78
2022-10-18T03:54:59.432Z,10.10
2022-10-18T03:57:26.169Z,8.23
2022-10-18T03:59:53.165Z,7.72
2022-10-18T04:02:19.890Z,8.18
2022-10-18T04:04:46.664Z,7.22
2022-10-18T04:07:13.478Z,7.35
2022-10-18T04:09:40.202Z,11.27
2022-10-18T04:12:06.964Z,11.55
2022-10-18T04:14:33.752Z,9.05
2022-10-18T04:17:00.551Z,13.35
2022-10-18T04:19:27.799Z,9.00
2022-10-18T04:21:54.545Z,9.65
2022-10-18T04:24:21.342Z,6.30
2022-10-18T04:26:48.068Z,10.07
2022-10-18T04:29:14.922Z,10.57
2022-10-18T04:31:41.615Z,10.07
2022-10-18T04:34:09.122Z,7.10
2022-10-18T04:36:35.878Z,11.07
2022-10-18T04:39:02.877Z,10.88
2022-10-18T04:41:29.677Z,7.88
2022-10-18T04:43:56.424Z,6.95
2022-10-18T04:46:23.172Z,8.27
2022-10-18T04:48:49.930Z,8.15
2022-10-18T04:51:16.753Z,6.93
2022-10-18T08:58:21.542Z,5.43
2022-10-18T09:01:03.340Z,5.53
2022-10-18T09:03:54.016Z,8.60
2022-10-18T09:10:30.940Z,7.53
2022-10-18T09:17:06.074Z,6.47
2022-10-18T09:20:10.292Z,6.22
2022-10-18T09:23:18.017Z,8.13
2022-10-18T09:25:57.794Z,7.72
2022-10-18T09:28:57.326Z,6.93
2022-10-18T09:31:56.734Z,6.97
2022-10-18T09:34:36.032Z,7.53
2022-10-18T09:37:03.694Z,9.05
2022-10-18T09:39:35.266Z,5.90
2022-10-18T09:42:44.280Z,4.80
2022-10-18T09:45:31.173Z,4.15
2022-10-18T09:48:22.810Z,9.00
2022-10-18T09:51:01.702Z,4.10
2022-10-18T09:53:58.008Z,7.30
2022-10-18T09:56:30.231Z,6.20
2022-10-18T09:58:57.203Z,6.00
2022-10-18T10:01:30.404Z,7.28
2022-10-18T10:03:57.728Z,8.57
2022-10-18T10:18:22.593Z,9.57
2022-10-18T10:20:52.869Z,4.63
2022-10-18T10:23:26.853Z,5.45
2022-10-18T10:25:56.654Z,6.03
2022-10-18T10:28:35.974Z,4.03
2022-10-18T10:31:21.269Z,3.95
2022-10-18T10:33:48.374Z,5.65
2022-10-18T10:36:20.979Z,8.88
2022-10-18T10:39:03.531Z,4.03
2022-10-18T10:41:33.789Z,6.38
2022-10-18T10:44:03.759Z,4.80
2022-10-18T10:46:35.490Z,4.32
2022-10-18T10:52:08.689Z,5.22
2022-10-18T10:54:50.354Z,4.57
2022-10-18T10:57:28.811Z,5.53
2022-10-18T10:59:59.720Z,5.72
2022-10-18T11:02:34.698Z,5.22
2022-10-18T11:05:26.510Z,6.82
2022-10-18T11:07:58.165Z,3.88
2022-10-18T11:13:26.804Z,6.28
2022-10-18T11:16:05.416Z,4.40
2022-10-18T11:18:35.198Z,6.13
2022-10-18T11:21:08.233Z,6.25
2022-10-18T11:23:37.836Z,3.92
2022-10-18T11:26:13.727Z,8.77
2022-10-18T11:28:55.410Z,9.40
2022-10-18T11:34:32.802Z,4.30
2022-10-18T11:37:37.507Z,3.75
2022-10-18T11:40:33.098Z,11.30
2022-10-18T11:43:20.986Z,4.05
2022-10-18T11:46:03.489Z,5.85
2022-10-18T11:48:45.196Z,7.60
2022-10-18T11:54:05.887Z,5.82
2022-10-18T11:56:50.107Z,4.57
2022-10-18T11:59:38.195Z,4.43
2022-10-18T12:02:39.163Z,3.60
2022-10-18T12:05:24.200Z,8.35
2022-10-18T12:08:13.378Z,4.40
2022-10-18T12:10:52.563Z,5.55
2022-10-18T12:13:56.890Z,7.32
2022-10-18T12:16:49.347Z,6.45
2022-10-18T12:19:26.997Z,3.40
2022-10-18T12:21:57.089Z,5.03
2022-10-18T12:24:30.142Z,8.38
2022-10-18T12:27:01.545Z,5.40
2022-10-18T12:29:50.205Z,3.85
2022-10-18T12:32:24.818Z,5.47
2022-10-18T12:35:11.151Z,6.07
2022-10-18T12:37:50.138Z,5.13
2022-10-18T12:40:40.678Z,4.78
2022-10-18T12:43:10.986Z,3.33
2022-10-18T12:45:57.839Z,3.97
2022-10-18T12:48:29.606Z,3.28
2022-10-18T12:51:06.140Z,5.82
2022-10-18T12:53:34.607Z,5.75
2022-10-18T12:56:30.672Z,7.25
2022-10-18T12:59:15.862Z,3.45
2022-10-18T13:01:51.712Z,6.13
2022-10-18T13:04:44.986Z,6.97
2022-10-18T13:07:19.736Z,4.90
2022-10-18T13:10:12.376Z,5.38
2022-10-18T13:13:13.213Z,4.60
2022-10-18T13:16:02.151Z,3.85
2022-10-18T13:18:51.494Z,5.00
2022-10-18T13:21:42.833Z,5.75
2022-10-18T13:24:25.941Z,3.90
2022-10-18T13:27:35.603Z,6.65
2022-10-18T13:30:17.951Z,5.50
2022-10-18T13:32:53.356Z,4.57
2022-10-18T13:35:38.574Z,3.40
2022-10-18T13:38:21.512Z,8.02
2022-10-18T13:41:03.308Z,6.03
2022-10-18T13:46:21.028Z,5.35
2022-10-18T13:48:53.633Z,5.15
2022-10-18T13:51:20.373Z,7.35
2022-10-18T13:54:00.345Z,5.97
2022-10-18T13:56:36.457Z,7.07
2022-10-18T13:59:29.362Z,6.60
2022-10-18T14:02:36.447Z,7.53
2022-10-18T14:05:44.987Z,9.23
2022-10-18T14:08:20.434Z,10.27
2022-10-18T14:11:27.748Z,8.07
2022-10-18T14:14:13.726Z,3.97
2022-10-18T14:16:48.893Z,6.22
2022-10-18T14:19:36.579Z,4.18
2022-10-18T14:22:23.575Z,6.53
2022-10-18T14:24:54.273Z,4.82
2022-10-18T14:27:23.783Z,4.93
2022-10-18T14:30:07.620Z,7.28
2022-10-18T14:32:35.260Z,7.72
2022-10-18T14:35:31.180Z,4.97
2022-10-18T14:37:51.783Z,4.28
2022-10-18T14:40:39.065Z,4.50
2022-10-18T14:43:13.798Z,6.72
2022-10-18T14:45:41.768Z,8.50
2022-10-18T14:48:24.538Z,7.45
2022-10-18T14:51:00.643Z,5.15
2022-10-18T14:53:32.564Z,11.70
2022-10-18T14:56:00.965Z,6.43
2022-10-18T14:58:28.218Z,6.88
2022-10-18T15:00:55.203Z,6.25
2022-10-18T15:06:56.854Z,8.20
2022-10-18T15:09:24.846Z,7.88
2022-10-18T15:11:54.801Z,6.72
2022-10-18T15:14:22.329Z,7.00
2022-10-18T15:16:52.282Z,6.97
2022-10-18T15:19:21.828Z,9.77
2022-10-18T15:22:30.247Z,10.10
2022-10-18T15:25:32.099Z,11.50
2022-10-18T15:28:00.531Z,7.00
2022-10-18T15:30:36.627Z,12.38
2022-10-18T15:33:09.712Z,11.43
2022-10-18T15:35:38.531Z,10.32
2022-10-18T15:38:27.821Z,9.30
2022-10-18T15:40:55.199Z,15.77
2022-10-18T15:43:27.903Z,14.05
2022-10-18T15:46:06.716Z,14.90
2022-10-18T15:48:38.287Z,15.77
2022-10-18T15:51:25.255Z,18.67
2022-10-18T15:53:53.959Z,14.00
2022-10-18T15:56:33.734Z,12.30
2022-10-18T15:59:06.249Z,9.00
2022-10-18T16:01:36.865Z,13.55
2022-10-18T16:04:13.761Z,11.88
2022-10-18T16:06:40.733Z,9.02
2022-10-18T16:09:13.097Z,9.07
2022-10-18T16:11:39.886Z,6.90
2022-10-18T16:14:06.692Z,9.70
2022-10-18T16:16:33.598Z,11.68
2022-10-18T16:19:00.887Z,11.55
2022-10-18T16:21:30.645Z,7.47
2022-10-18T16:23:57.866Z,10.05
2022-10-18T16:26:26.878Z,9.05
2022-10-18T16:28:54.935Z,9.93
2022-10-18T16:31:31.750Z,10.77
2022-10-18T16:33:58.977Z,7.88
2022-10-18T16:36:29.150Z,12.15
2022-10-18T16:38:57.123Z,8.02
2022-10-18T16:41:24.381Z,8.80
2022-10-18T16:43:51.565Z,10.93
2022-10-18T16:46:27.893Z,13.15
2022-10-18T16:48:55.383Z,11.65
2022-10-18T16:51:22.532Z,8.73
2022-10-18T16:56:33.907Z,9.15
2022-10-18T16:59:00.906Z,10.00
2022-10-18T17:01:27.999Z,12.05
2022-10-18T17:03:55.367Z,9.55
2022-10-18T17:06:33.020Z,7.97
2022-10-18T17:09:00.131Z,7.63
2022-10-18T17:11:28.510Z,7.10
2022-10-18T17:13:55.805Z,9.48
2022-10-18T17:16:34.036Z,11.13
2022-10-18T17:19:03.812Z,6.40
2022-10-18T17:21:31.567Z,9.63
2022-10-18T17:24:06.156Z,9.13
2022-10-18T17:26:34.251Z,6.80
2022-10-18T17:29:05.416Z,7.78
2022-10-18T17:31:32.716Z,10.02
2022-10-18T17:34:01.954Z,9.05
2022-10-18T17:36:33.111Z,7.22
2022-10-18T17:39:00.075Z,6.67
2022-10-18T17:41:27.402Z,10.50
2022-10-18T17:43:54.233Z,7.70
2022-10-18T17:46:21.129Z,9.88
2022-10-18T17:48:47.969Z,8.02
2022-10-18T17:51:16.417Z,9.80
2022-10-18T17:53:43.823Z,6.93
2022-10-18T17:56:12.093Z,7.75
2022-10-18T17:58:43.552Z,8.57
2022-10-18T18:01:20.844Z,10.07
2022-10-18T18:03:48.033Z,8.73
2022-10-18T18:06:23.997Z,9.55
2022-10-18T18:08:50.842Z,6.97
2022-10-18T18:11:18.208Z,9.57
2022-10-18T18:13:45.101Z,7.03
2022-10-18T18:16:13.081Z,8.60
2022-10-18T18:18:39.981Z,7.68
2022-10-18T18:21:06.729Z,10.02
2022-10-18T18:23:33.479Z,7.85
2022-10-18T18:26:00.339Z,7.38
2022-10-18T18:28:27.345Z,8.10
2022-10-18T18:30:54.133Z,5.97
2022-10-18T18:33:20.885Z,8.27
2022-10-18T18:35:58.352Z,6.45
2022-10-18T18:38:28.393Z,8.55
2022-10-18T18:41:13.359Z,13.30
2022-10-18T18:43:43.301Z,16.33
2022-10-18T18:46:11.010Z,13.18
2022-10-18T18:48:38.039Z,17.05
2022-10-18T18:51:11.769Z,15.52
2022-10-18T18:53:43.062Z,14.18
2022-10-18T18:56:15.350Z,12.50
2022-10-18T18:58:44.033Z,11.88
2022-10-18T19:01:19.590Z,16.63
2022-10-18T19:03:48.832Z,13.30
2022-10-18T19:06:27.287Z,15.18
2022-10-18T19:09:01.734Z,13.65
2022-10-18T19:11:32.498Z,13.98
2022-10-18T19:14:03.679Z,14.93
2022-10-18T19:16:50.048Z,15.77
2022-10-18T19:19:19.678Z,16.75
2022-10-18T19:21:55.074Z,13.30
2022-10-18T19:24:23.757Z,15.95
2022-10-18T19:27:11.751Z,11.63
2022-10-18T19:29:40.522Z,11.15
2022-10-18T19:32:11.988Z,13.40
2022-10-18T19:34:39.225Z,14.45
2022-10-18T19:37:05.934Z,15.10
2022-10-18T19:39:34.830Z,14.18
2022-10-18T19:42:04.557Z,15.18
2022-10-18T19:44:33.190Z,10.40
2022-10-18T19:47:00.152Z,13.20
2022-10-18T19:49:28.667Z,12.13
2022-10-18T19:51:56.145Z,12.13
2022-10-18T19:54:23.050Z,11.60
2022-10-18T19:56:52.740Z,9.57
2022-10-18T19:59:19.924Z,10.88
2022-10-18T20:01:46.742Z,13.57
2022-10-18T20:04:14.571Z,13.10
2022-10-18T20:06:42.002Z,11.32
2022-10-18T20:09:12.360Z,12.35
2022-10-18T20:11:44.489Z,12.98
2022-10-18T20:14:11.402Z,12.00
2022-10-18T20:16:38.181Z,12.68
2022-10-18T20:19:07.716Z,13.98
2022-10-18T20:21:40.161Z,12.07
2022-10-18T20:24:08.223Z,14.02
2022-10-18T20:26:35.990Z,11.15
2022-10-18T20:29:05.861Z,12.38
2022-10-18T20:31:36.171Z,12.18
2022-10-18T20:34:08.865Z,9.20
2022-10-18T20:36:36.657Z,12.27
2022-10-18T20:39:07.774Z,9.95
2022-10-18T20:41:37.046Z,13.13
2022-10-18T20:44:11.623Z,13.98
2022-10-18T20:46:38.881Z,12.48
2022-10-18T20:49:07.281Z,11.45
2022-10-18T20:51:35.023Z,13.90
2022-10-18T20:56:34.363Z,12.70
2022-10-18T20:59:03.922Z,11.98
2022-10-18T21:01:32.886Z,10.82
2022-10-18T21:04:05.694Z,10.02
2022-10-18T21:06:38.237Z,9.35
2022-10-18T21:09:13.809Z,7.95
2022-10-18T21:11:43.402Z,13.65
2022-10-18T21:14:16.086Z,13.10
2022-10-18T21:16:43.868Z,12.95
2022-10-18T21:19:25.651Z,11.77
2022-10-18T21:21:55.792Z,8.98
2022-10-18T21:24:24.130Z,11.05
2022-10-18T21:26:53.924Z,12.27
2022-10-18T21:29:22.630Z,10.82
2022-10-18T21:32:03.813Z,11.70
2022-10-18T21:34:30.565Z,10.95
2022-10-18T21:36:57.521Z,16.00
2022-10-18T21:41:56.322Z,11.30
2022-10-18T21:44:23.148Z,11.38
2022-10-18T21:46:50.714Z,12.13
2022-10-18T21:49:17.947Z,9.70
2022-10-18T21:51:44.809Z,10.77
2022-10-18T21:54:14.366Z,14.95
2022-10-18T21:56:41.206Z,11.05
2022-10-18T21:59:07.972Z,8.32
2022-10-18T22:01:37.662Z,10.13
2022-10-18T22:04:07.045Z,8.43
2022-10-18T22:09:08.166Z,10.23
2022-10-18T22:11:44.160Z,12.77
2022-10-18T22:14:11.137Z,9.38
2022-10-18T22:16:38.307Z,10.07
2022-10-18T22:19:06.537Z,12.75
2022-10-18T22:21:33.493Z,9.38
2022-10-18T22:24:03.686Z,12.75
2022-10-18T22:26:34.590Z,7.63
2022-10-18T22:29:07.845Z,15.40
2022-10-18T22:31:36.783Z,9.30
2022-10-18T22:34:08.757Z,9.13
2022-10-18T22:39:02.835Z,12.40
2022-10-18T22:41:30.313Z,6.82
2022-10-18T22:43:58.567Z,8.55
2022-10-18T22:46:28.001Z,7.53
2022-10-18T22:48:54.967Z,8.90
2022-10-18T22:51:21.821Z,9.88
2022-10-18T22:53:48.954Z,13.40
2022-10-18T22:56:17.793Z,10.40
2022-10-18T22:58:44.701Z,8.23
2022-10-18T23:01:14.328Z,9.27
2022-10-18T23:03:41.448Z,10.32
2022-10-18T23:06:26.183Z,7.80
2022-10-18T23:08:54.684Z,12.27
2022-10-18T23:11:22.211Z,14.30
2022-10-18T23:13:49.391Z,11.63
2022-10-18T23:16:16.978Z,11.65
2022-10-18T23:18:43.803Z,12.40
2022-10-18T23:21:12.714Z,11.13
2022-10-18T23:23:41.466Z,12.98
2022-10-18T23:26:11.801Z,13.20
2022-10-18T23:28:41.705Z,9.57
2022-10-18T23:31:45.825Z,8.55
2022-10-18T23:34:12.614Z,11.90
2022-10-18T23:36:39.383Z,15.55
2022-10-18T23:39:06.966Z,15.82
2022-10-18T23:41:33.946Z,12.65
2022-10-18T23:44:00.962Z,12.30
2022-10-18T23:46:28.515Z,11.05
2022-10-18T23:48:55.251Z,10.98
2022-10-18T23:51:22.044Z,9.32
2022-10-18T23:53:48.825Z,19.00
2022-10-18T23:56:16.511Z,10.13
2022-10-18T23:58:44.969Z,9.18
